DW3338 Cozumel MX current weather conditions

sailwx.info

Wind from 360

Air temperature 23.9° C
Dewpoint 22.0° C

Last reported at 2019-Dec-13 12:00 UTC.
Time now 2019-Dec-13 12:41 UTC

Location: N 20°30' W 086°57'.
View on Google Maps.

See reports from other nearby stations

  
Tides and Currents Weather Stations Pressure Air Temp Water Temp Dewpoint Dewpoint Depression Visibility Wind Speed Wind Dir Waves Ship Positions
date/time (UTC)wind fromknots sea level pressurealtimeterstation pressurevisibilityair tempwater tempwave heightnotes
2019-Dec-13 12:00 360 23.9
2019-Dec-13 11:45 360 23.9
2019-Dec-13 11:30 360 23.9
2019-Dec-13 11:15 360 23.9
2019-Dec-13 03:15 360 25.6
2019-Dec-13 03:00 360 25.6
2019-Dec-13 02:45 360 25.6
2019-Dec-13 02:30 360 25.6
2019-Dec-13 02:15 360 26.1
2019-Dec-13 02:00 360 26.1
2019-Dec-13 01:45 360 26.1
2019-Dec-13 01:30 360 26.1
2019-Dec-13 01:15 360 26.1
2019-Dec-13 01:00 360 26.1
2019-Dec-13 00:45 360 26.1
2019-Dec-13 00:30 360 26.1
2019-Dec-13 00:15 360 3 gusting 6 26.7
2019-Dec-13 00:00 360 4 gusting 6 26.7
2019-Dec-12 23:45 360 5 gusting 6 26.7
2019-Dec-12 23:30 360 3 gusting 6 27.2
2019-Dec-12 23:15 360 4 gusting 7 27.2
2019-Dec-12 23:00 360 4 gusting 8 27.8
2019-Dec-12 22:45 360 4 gusting 7 27.8
2019-Dec-12 22:30 360 6 gusting 8 28.3
2019-Dec-12 22:15 360 6 gusting 10 28.3
2019-Dec-12 22:00 360 7 gusting 10 28.3
2019-Dec-12 21:45 360 5 gusting 9 28.9
2019-Dec-12 21:30 360 6 gusting 9 28.9
2019-Dec-12 21:15 360 8 gusting 13 28.9
2019-Dec-12 21:00 360 5 gusting 12 28.9
2019-Dec-12 20:45 036 6 gusting 13 29.4
2019-Dec-12 20:30 360 6 gusting 10 29.4
2019-Dec-12 20:15 360 7 gusting 11 30.0
2019-Dec-12 20:00 360 6 gusting 11 29.4
2019-Dec-12 19:45 021 6 gusting 12 29.4
2019-Dec-12 19:30 360 5 gusting 9 30.0
2019-Dec-12 19:15 360 9 gusting 13 30.0
2019-Dec-12 19:00 360 6 gusting 11 30.0
2019-Dec-12 18:45 360 6 gusting 11 30.0
2019-Dec-12 18:30 360 7 gusting 12 30.0
2019-Dec-12 18:15 360 6 gusting 11 30.0
2019-Dec-12 18:00 360 7 gusting 11 30.0
2019-Dec-12 17:45 360 6 gusting 10 29.4
2019-Dec-12 17:30 360 6 gusting 10 29.4
2019-Dec-12 17:15 360 6 gusting 11 29.4
2019-Dec-12 17:00 360 6 gusting 10 29.4
2019-Dec-12 16:45 360 7 gusting 10 29.4
2019-Dec-12 16:30 360 5 gusting 12 29.4
2019-Dec-12 16:15 360 6 gusting 10 28.9
2019-Dec-12 16:00 360 6 gusting 12 29.4
2019-Dec-12 15:45 360 4 gusting 8 28.9
2019-Dec-12 15:30 360 7 gusting 10 28.9
2019-Dec-12 15:15 360 6 gusting 10 28.9
2019-Dec-12 15:00 360 6 gusting 10 28.9
2019-Dec-12 14:45 360 4 gusting 8 28.3
2019-Dec-12 14:30 360 3 gusting 7 28.3
2019-Dec-12 14:15 360 5 gusting 8 27.8
2019-Dec-12 14:00 360 2 gusting 6 27.2
2019-Dec-12 13:45 360 3 gusting 6 26.7
2019-Dec-12 13:30 360 2 gusting 6 26.7
2019-Dec-12 13:15 360 3 gusting 5 25.6
2019-Dec-12 13:00 360 3 gusting 5 25.0
2019-Dec-12 12:45 360 3 gusting 4 24.4
2019-Dec-12 12:30 360 1 gusting 4 24.4
2019-Dec-12 12:15 360 3 gusting 5 24.4
2019-Dec-12 12:00 360 3 gusting 5 24.4
2019-Dec-12 11:45 360 3 gusting 5 24.4
2019-Dec-12 11:30 360 2 gusting 5 23.9
2019-Dec-12 11:15 360 2 gusting 4 23.9
2019-Dec-12 11:00 360 3 gusting 5 23.9
2019-Dec-12 10:45 360 1 gusting 4 23.9
2019-Dec-12 10:30 360 2 gusting 5 24.4
2019-Dec-12 03:00 360 3 gusting 6 25.0
2019-Dec-12 02:45 360 4 gusting 7 25.0
2019-Dec-12 02:30 360 3 gusting 6 25.0
2019-Dec-12 02:15 360 3 gusting 6 25.6
2019-Dec-12 02:00 360 3 gusting 6 25.0
2019-Dec-12 01:45 360 2 gusting 3 25.0
2019-Dec-12 01:30 360 2 gusting 4 25.6
2019-Dec-12 01:15 360 2 gusting 4 25.6
2019-Dec-12 01:00 360 2 gusting 5 25.6
2019-Dec-12 00:45 360 3 gusting 5 25.6
2019-Dec-12 00:30 360 3 gusting 6 25.6
2019-Dec-12 00:15 360 3 gusting 4 25.6
2019-Dec-12 00:00 360 3 gusting 5 26.1
2019-Dec-11 23:45 360 2 gusting 5 26.1
2019-Dec-11 23:30 360 3 gusting 6 26.1
2019-Dec-11 23:15 360 3 gusting 6 26.7
2019-Dec-11 23:00 360 3 gusting 5 26.7
2019-Dec-11 22:45 360 4 gusting 6 27.2
2019-Dec-11 22:30 360 4 gusting 8 27.2
2019-Dec-11 22:15 360 5 gusting 9 27.8
2019-Dec-11 22:00 360 4 gusting 8 27.8
2019-Dec-11 21:45 360 2 gusting 6 27.2
2019-Dec-11 21:30 360 4 gusting 6 27.2
2019-Dec-11 21:15 360 3 gusting 6 26.7
2019-Dec-11 21:00 360 4 gusting 7 26.1
2019-Dec-11 20:45 360 4 gusting 6 26.1
2019-Dec-11 20:30 360 2 gusting 6 25.6
2019-Dec-11 20:15 360 3 gusting 9 25.6
2019-Dec-11 20:00 360 3 gusting 7 25.6
2019-Dec-11 19:45 360 4 gusting 7 26.1
2019-Dec-11 19:30 360 4 gusting 6 26.1
2019-Dec-11 19:15 360 5 gusting 7 26.1
2019-Dec-11 19:00 360 5 gusting 10 26.1
2019-Dec-11 18:45 360 6 gusting 11 27.2
2019-Dec-11 18:30 360 6 gusting 8 26.7
2019-Dec-11 18:15 360 5 gusting 8 26.1
2019-Dec-11 18:00 360 7 gusting 13 25.0
2019-Dec-11 17:45 360 6 gusting 13 24.4
2019-Dec-11 17:30 360 8 gusting 15 24.4
2019-Dec-11 17:15 360 8 gusting 15 24.4
2019-Dec-11 17:00 360 6 gusting 12 26.1
2019-Dec-11 16:45 011 27.2
2019-Dec-11 16:30 360 28.9
2019-Dec-11 16:15 360 2 gusting 9 28.9
2019-Dec-11 16:00 360 6 gusting 11 29.4
2019-Dec-11 15:45 360 4 gusting 12 30.0
2019-Dec-11 15:30 360 29.4
2019-Dec-11 15:15 360 28.9
2019-Dec-11 15:00 360 28.9
2019-Dec-11 14:45 360 0 gusting 6 28.9
2019-Dec-11 14:30 360 28.3
2019-Dec-11 14:15 360 27.8
2019-Dec-11 14:00 360 2 gusting 7 27.8
2019-Dec-11 13:45 360 27.8
2019-Dec-11 13:30 360 27.2
2019-Dec-11 13:15 360 26.7
2019-Dec-11 13:00 360 25.6
2019-Dec-11 12:45 360 25.0
2019-Dec-11 12:30 360 25.0
2019-Dec-11 12:15 360 25.0
2019-Dec-11 12:00 360 24.4